Time;durP1;ratioP1;P1;durP2;ratioP2;P2;SDS_P1;SDS_P2;PMS_P1;PMS_P2;Temp;Humidity;BMP_temperature;BMP_pressure;BME280_temperature;BME280_humidity;BME280_pressure;Samples;Min_cycle;Max_cycle;Signal;HPM_P1;HPM_P2
2022/09/10 00:02:48;;;;;;;1999.90;999.90;;;16.00;99.90;;;;;;6753502;88;20247;-79
2022/09/10 00:12:50;;;;;;;1999.90;999.90;;;15.90;99.90;;;;;;6749991;88;20200;-80
2022/09/10 00:22:50;;;;;;;1999.90;999.90;;;16.00;99.90;;;;;;6758957;88;20800;-80
2022/09/10 00:32:51;;;;;;;1999.90;999.90;;;15.90;99.90;;;;;;6751465;88;20187;-80
2022/09/10 00:42:54;;;;;;;1999.90;999.90;;;16.00;99.90;;;;;;6751857;88;20681;-79
2022/09/10 00:52:59;;;;;;;1999.90;999.90;;;16.10;99.90;;;;;;6750448;88;20214;-79
2022/09/10 01:03:02;;;;;;;1999.90;999.90;;;16.20;99.90;;;;;;6747599;88;20600;-79
2022/09/10 01:13:09;;;;;;;1999.90;999.90;;;16.10;99.90;;;;;;6755947;77;20205;-78
2022/09/10 01:23:40;;;;;;;1999.90;999.90;;;16.10;99.90;;;;;;6746431;88;20247;-78
2022/09/10 01:33:51;;;;;;;1999.90;999.90;;;16.10;99.90;;;;;;6742361;88;20193;-77
2022/09/10 01:43:51;;;;;;;1999.90;999.90;;;16.30;99.90;;;;;;6749747;88;20196;-78
2022/09/10 01:54:25;;;;;;;1999.90;999.90;;;16.40;99.90;;;;;;6740248;88;20194;-77
2022/09/10 02:04:27;;;;;;;1999.90;999.90;;;16.40;99.90;;;;;;6724348;88;20192;-78
2022/09/10 02:14:27;;;;;;;1999.90;999.90;;;16.40;99.90;;;;;;6740659;88;20180;-77
2022/09/10 02:24:28;;;;;;;1999.90;999.90;;;16.20;99.90;;;;;;6744869;88;20261;-78
2022/09/10 02:34:29;;;;;;;1999.90;999.90;;;16.10;99.90;;;;;;6752150;88;20675;-77
2022/09/10 02:44:29;;;;;;;1999.90;999.90;;;16.20;99.90;;;;;;6743150;88;20627;-78
2022/09/10 02:54:30;;;;;;;1999.90;999.90;;;16.30;99.90;;;;;;6740888;88;20181;-77
2022/09/10 03:04:30;;;;;;;1999.90;999.90;;;16.30;99.90;;;;;;6735276;88;20176;-77
2022/09/10 03:14:31;;;;;;;1999.90;999.90;;;16.40;99.90;;;;;;6740225;88;20201;-78
2022/09/10 03:24:32;;;;;;;1999.90;999.90;;;16.20;99.90;;;;;;6737025;88;20215;-78
2022/09/10 03:34:32;;;;;;;1999.90;999.90;;;16.30;99.90;;;;;;6741657;88;20197;-78
2022/09/10 03:44:33;;;;;;;1999.90;999.90;;;16.30;99.90;;;;;;6755971;88;20218;-78
2022/09/10 03:54:36;;;;;;;1999.90;999.90;;;16.20;99.90;;;;;;6742478;88;20209;-79
2022/09/10 04:04:36;;;;;;;1999.90;999.90;;;16.20;99.90;;;;;;6735725;88;20218;-79
2022/09/10 04:14:37;;;;;;;1999.90;999.90;;;16.10;99.90;;;;;;6726340;88;20312;-79
2022/09/10 04:24:37;;;;;;;1999.90;999.90;;;16.00;99.90;;;;;;6733465;88;20208;-77
2022/09/10 04:34:38;;;;;;;1999.90;999.90;;;15.90;99.90;;;;;;6721563;88;20231;-77
2022/09/10 04:44:38;;;;;;;1999.90;999.90;;;15.90;99.90;;;;;;6720712;88;20217;-77
2022/09/10 04:54:39;;;;;;;1999.90;999.90;;;16.00;99.90;;;;;;6736593;88;20207;-78
2022/09/10 05:04:40;;;;;;;1999.90;999.90;;;16.10;99.90;;;;;;6737109;88;20247;-77
2022/09/10 05:14:41;;;;;;;1999.90;999.90;;;15.90;99.90;;;;;;6736989;88;20180;-77
2022/09/10 05:24:41;;;;;;;1999.90;999.90;;;16.00;99.90;;;;;;6766318;88;20179;-77
2022/09/10 05:34:42;;;;;;;1999.90;999.90;;;15.90;99.90;;;;;;6758887;88;20193;-78
2022/09/10 05:44:43;;;;;;;1999.90;999.90;;;16.00;99.90;;;;;;6744485;88;20211;-78
2022/09/10 05:54:43;;;;;;;1999.90;999.90;;;16.00;99.90;;;;;;6734135;88;20618;-77
2022/09/10 06:04:44;;;;;;;1999.90;999.90;;;15.90;99.90;;;;;;6730653;88;20224;-77
2022/09/10 06:14:45;;;;;;;1999.90;999.90;;;16.00;99.90;;;;;;6746564;88;20244;-78
2022/09/10 06:24:47;;;;;;;1999.90;999.90;;;16.20;99.90;;;;;;6724035;88;20328;-78
2022/09/10 06:34:48;;;;;;;1999.90;999.90;;;16.50;99.90;;;;;;6731376;88;20696;-78
2022/09/10 06:44:49;;;;;;;1999.90;999.90;;;16.60;99.90;;;;;;6728569;88;20200;-78
2022/09/10 06:54:50;;;;;;;1999.90;999.90;;;16.90;99.90;;;;;;6740394;88;20193;-78
2022/09/10 07:04:50;;;;;;;1999.90;999.90;;;17.10;99.90;;;;;;6736969;88;20249;-77
2022/09/10 07:14:51;;;;;;;1999.90;999.90;;;17.30;99.90;;;;;;6741288;88;20821;-79
2022/09/10 07:24:53;;;;;;;1999.90;999.90;;;17.50;99.90;;;;;;6740827;88;20308;-77
2022/09/10 07:34:54;;;;;;;1999.90;999.90;;;17.80;99.90;;;;;;6733551;88;20566;-77
2022/09/10 07:44:55;;;;;;;1999.90;999.90;;;17.80;99.90;;;;;;6727300;88;20610;-78
2022/09/10 07:54:55;;;;;;;1999.90;999.90;;;18.20;99.90;;;;;;6729990;88;20235;-78
2022/09/10 08:04:56;;;;;;;1999.90;999.90;;;18.40;99.90;;;;;;6729047;88;20515;-78
2022/09/10 08:14:57;;;;;;;1999.90;999.90;;;18.60;99.90;;;;;;6736205;88;20190;-77
2022/09/10 08:24:58;;;;;;;1999.90;999.90;;;18.80;99.90;;;;;;6735025;88;20173;-77
2022/09/10 08:34:58;;;;;;;1999.90;999.90;;;20.00;99.90;;;;;;6735489;88;20255;-77
2022/09/10 08:45:09;;;;;;;1999.90;999.90;;;21.00;99.90;;;;;;6729791;88;20350;-78
2022/09/10 08:55:15;;;;;;;1999.90;999.90;;;21.40;99.90;;;;;;6732480;88;20192;-78
2022/09/10 09:05:19;;;;;;;1999.90;999.90;;;20.40;99.90;;;;;;6728482;88;20610;-77
2022/09/10 09:15:31;;;;;;;1999.90;999.90;;;20.20;99.90;;;;;;6735823;88;20242;-77
2022/09/10 09:25:55;;;;;;;1999.90;999.90;;;20.20;99.90;;;;;;6733700;88;20320;-77
2022/09/10 09:36:03;;;;;;;1999.90;999.90;;;19.00;99.90;;;;;;6732104;88;20189;-76
2022/09/10 09:46:14;;;;;;;1999.90;999.90;;;18.50;99.90;;;;;;6731888;88;20318;-77
2022/09/10 09:56:26;;;;;;;1999.90;999.90;;;18.50;99.90;;;;;;6724938;88;20215;-77
2022/09/10 10:06:33;;;;;;;1999.90;999.90;;;18.70;99.90;;;;;;6734456;88;20295;-77
2022/09/10 10:16:34;;;;;;;1999.90;999.90;;;19.00;99.90;;;;;;6735309;88;20192;-76
2022/09/10 10:26:37;;;;;;;1999.90;999.90;;;19.40;99.90;;;;;;6734056;88;20436;-78
2022/09/10 10:37:00;;;;;;;1999.90;999.90;;;19.50;99.90;;;;;;6732124;88;20210;-77
2022/09/10 10:47:13;;;;;;;1999.90;999.90;;;19.60;99.90;;;;;;6717626;88;20331;-74
2022/09/10 10:57:37;;;;;;;1999.90;999.90;;;19.60;99.90;;;;;;6741661;88;20185;-76
2022/09/10 11:07:42;;;;;;;1999.90;999.90;;;19.80;99.90;;;;;;6721975;88;20264;-75
2022/09/10 11:17:52;;;;;;;1999.90;999.90;;;19.90;99.90;;;;;;6728016;88;20790;-74
2022/09/10 11:28:06;;;;;;;1999.90;999.90;;;20.10;99.90;;;;;;6728239;88;20268;-78
2022/09/10 11:38:23;;;;;;;1999.90;999.90;;;20.10;99.90;;;;;;6742123;88;20248;-76
2022/09/10 11:48:36;;;;;;;1999.90;999.90;;;20.10;99.90;;;;;;6734190;88;20295;-78
2022/09/10 11:59:01;;;;;;;1999.90;999.90;;;20.00;99.90;;;;;;6730820;88;20195;-77
2022/09/10 12:09:47;;;;;;;1999.90;999.90;;;20.40;99.90;;;;;;6724990;88;20394;-75
2022/09/10 12:19:53;;;;;;;1999.90;999.90;;;20.20;99.90;;;;;;6731692;88;20197;-77
2022/09/10 12:29:54;;;;;;;1999.90;999.90;;;20.10;99.90;;;;;;6733949;88;20622;-76
2022/09/10 12:40:23;;;;;;;1999.90;999.90;;;19.70;99.90;;;;;;6733447;88;20201;-77
2022/09/10 12:50:31;;;;;;;1999.90;999.90;;;19.60;99.90;;;;;;6721683;88;20175;-78
2022/09/10 13:00:52;;;;;;;1999.90;999.90;;;19.60;99.90;;;;;;6749139;88;20238;-76
2022/09/10 13:20:57;;;;;;;1999.90;999.90;;;20.10;99.90;;;;;;6673101;88;20337;-79
2022/09/10 13:31:01;;;;;;;1999.90;999.90;;;20.00;99.90;;;;;;6741748;88;20215;-79
2022/09/10 13:41:31;;;;;;;1999.90;999.90;;;18.70;99.90;;;;;;6743669;88;20183;-79
2022/09/10 13:51:46;;;;;;;1999.90;999.90;;;17.70;99.90;;;;;;6742079;88;20767;-80
2022/09/10 14:01:48;;;;;;;1999.90;999.90;;;17.40;99.90;;;;;;6740577;88;20283;-79
2022/09/10 14:11:49;;;;;;;1999.90;999.90;;;17.20;99.90;;;;;;6740737;88;20189;-78
2022/09/10 14:21:51;;;;;;;1999.90;999.90;;;18.00;99.90;;;;;;6740593;88;20201;-79
2022/09/10 14:31:51;;;;;;;1999.90;999.90;;;18.40;99.90;;;;;;6739475;88;20176;-79
2022/09/10 14:42:23;;;;;;;1999.90;999.90;;;18.60;99.90;;;;;;6738773;88;20250;-78
2022/09/10 14:52:23;;;;;;;1999.90;999.90;;;18.70;99.90;;;;;;6739299;88;20278;-78
2022/09/10 15:02:27;;;;;;;1999.90;999.90;;;18.60;99.90;;;;;;6739385;88;20222;-78
2022/09/10 15:12:29;;;;;;;1999.90;999.90;;;18.60;99.90;;;;;;6739003;88;20259;-78
2022/09/10 15:22:30;;;;;;;1999.90;999.90;;;18.50;99.90;;;;;;6738901;88;20338;-79
2022/09/10 15:32:31;;;;;;;1999.90;999.90;;;19.50;99.90;;;;;;6738722;88;20330;-78
2022/09/10 15:42:31;;;;;;;1999.90;999.90;;;19.60;99.90;;;;;;6738817;88;20176;-78
2022/09/10 15:52:32;;;;;;;1999.90;999.90;;;19.40;99.90;;;;;;6738039;88;20316;-79
2022/09/10 16:02:32;;;;;;;1999.90;999.90;;;19.80;99.90;;;;;;6743766;88;20230;-78
2022/09/10 16:12:33;;;;;;;1999.90;999.90;;;19.70;99.90;;;;;;6743655;88;20213;-79
2022/09/10 16:22:34;;;;;;;1999.90;999.90;;;19.70;99.90;;;;;;6746635;88;20265;-79
2022/09/10 16:32:34;;;;;;;1999.90;999.90;;;19.70;99.90;;;;;;6760300;87;20201;-79
2022/09/10 16:42:35;;;;;;;1999.90;999.90;;;19.60;99.90;;;;;;6766962;87;20193;-79
2022/09/10 16:52:36;;;;;;;1999.90;999.90;;;19.40;99.90;;;;;;6759068;87;20177;-78
2022/09/10 17:02:37;;;;;;;1999.90;999.90;;;19.30;99.90;;;;;;6758376;88;20261;-79
2022/09/10 17:12:38;;;;;;;1999.90;999.90;;;19.10;99.90;;;;;;6759722;87;20194;-78
2022/09/10 17:22:38;;;;;;;1999.90;999.90;;;18.90;99.90;;;;;;6770582;87;20211;-78
2022/09/10 17:32:39;;;;;;;1999.90;999.90;;;18.80;99.90;;;;;;6771374;87;20365;-78
2022/09/10 17:42:39;;;;;;;1999.90;999.90;;;18.70;99.90;;;;;;6775441;87;20231;-78
2022/09/10 17:52:44;;;;;;;1999.90;999.90;;;18.60;99.90;;;;;;6750297;88;20284;-78
2022/09/10 18:02:45;;;;;;;1999.90;999.90;;;18.50;99.90;;;;;;6764600;87;20309;-76
2022/09/10 18:12:45;;;;;;;1999.90;999.90;;;18.40;99.90;;;;;;6753022;87;20215;-77
2022/09/10 18:22:46;;;;;;;1999.90;999.90;;;18.30;99.90;;;;;;6753335;88;20202;-77
2022/09/10 18:32:46;;;;;;;1999.90;999.90;;;18.20;99.90;;;;;;6761693;87;20190;-79
2022/09/10 18:42:49;;;;;;;1999.90;999.90;;;18.10;99.90;;;;;;6746161;88;20240;-78
2022/09/10 18:52:49;;;;;;;1999.90;999.90;;;18.10;99.90;;;;;;6746396;87;20255;-77
2022/09/10 19:02:50;;;;;;;1999.90;999.90;;;18.10;99.90;;;;;;6754788;87;20700;-77
2022/09/10 19:12:50;;;;;;;1999.90;999.90;;;18.00;99.90;;;;;;6753594;87;20187;-78
2022/09/10 19:22:52;;;;;;;1999.90;999.90;;;18.00;99.90;;;;;;6761534;87;20208;-78
2022/09/10 19:32:52;;;;;;;1999.90;999.90;;;17.70;99.90;;;;;;6760233;87;20211;-78
2022/09/10 19:42:53;;;;;;;1999.90;999.90;;;17.70;99.90;;;;;;6751787;87;20271;-80
2022/09/10 19:52:54;;;;;;;1999.90;999.90;;;17.70;99.90;;;;;;6755533;88;20254;-80
2022/09/10 20:02:54;;;;;;;1999.90;999.90;;;17.70;99.90;;;;;;6755789;87;20296;-80
2022/09/10 20:12:56;;;;;;;1999.90;999.90;;;17.60;99.90;;;;;;6756417;88;20193;-79
2022/09/10 20:23:00;;;;;;;1999.90;999.90;;;17.60;99.90;;;;;;6758518;87;20272;-79
2022/09/10 20:33:00;;;;;;;1999.90;999.90;;;17.50;99.90;;;;;;6753740;87;20235;-78
2022/09/10 20:43:01;;;;;;;1999.90;999.90;;;17.50;99.90;;;;;;6753476;87;20193;-78
2022/09/10 20:53:01;;;;;;;1999.90;999.90;;;17.40;99.90;;;;;;6767431;87;20686;-79
2022/09/10 21:03:02;;;;;;;1999.90;999.90;;;17.30;99.90;;;;;;6758074;88;20426;-79
2022/09/10 21:13:03;;;;;;;1999.90;999.90;;;17.10;99.90;;;;;;6761642;88;20204;-80
2022/09/10 21:23:04;;;;;;;1999.90;999.90;;;17.20;99.90;;;;;;6761572;88;20667;-79
2022/09/10 21:33:04;;;;;;;1999.90;999.90;;;17.10;99.90;;;;;;6758858;88;20226;-80
2022/09/10 21:43:05;;;;;;;1999.90;999.90;;;17.10;99.90;;;;;;6762257;88;20229;-79
2022/09/10 21:53:05;;;;;;;1999.90;999.90;;;17.10;99.90;;;;;;6762936;88;20199;-79
2022/09/10 22:03:06;;;;;;;1999.90;999.90;;;17.00;99.90;;;;;;6763468;88;20188;-79
2022/09/10 22:13:07;;;;;;;1999.90;999.90;;;17.10;99.90;;;;;;6764887;88;20271;-80
2022/09/10 22:23:08;;;;;;;1999.90;999.90;;;17.00;99.90;;;;;;6766074;88;20604;-79
2022/09/10 22:33:08;;;;;;;1999.90;999.90;;;17.00;99.90;;;;;;6764720;88;20275;-79
2022/09/10 22:43:09;;;;;;;1999.90;999.90;;;17.00;99.90;;;;;;6764738;88;20194;-80
2022/09/10 22:53:10;;;;;;;1999.90;999.90;;;16.90;99.90;;;;;;6765688;88;20220;-80
2022/09/10 23:03:10;;;;;;;1999.90;999.90;;;16.90;99.90;;;;;;6763441;88;20298;-79
2022/09/10 23:13:11;;;;;;;1999.90;999.90;;;16.80;99.90;;;;;;6764195;88;20221;-79
2022/09/10 23:23:11;;;;;;;1999.90;999.90;;;16.80;99.90;;;;;;6763487;88;20723;-79
2022/09/10 23:33:12;;;;;;;1999.90;999.90;;;16.80;99.90;;;;;;6763916;88;20620;-79
2022/09/10 23:43:13;;;;;;;1999.90;999.90;;;16.70;99.90;;;;;;6763667;87;20694;-79
2022/09/10 23:53:13;;;;;;;1999.90;999.90;;;16.60;99.90;;;;;;6763090;88;20195;-80
